Nobel, Canada
Current Conditions -  °F | °C
As of 6:00 AM on Thursday 23 Oct 2014 (Local Time) from CYQA Reporting Station
Clear Clear  
Wind Chill: 30°   Ceiling: Unl
Heat Index: 34°   Visibility: 9mi
Dew Point: 34°   Wind: 5mph
Humidity: 100%   Direction: 320°NW
Pressure: 30.2"   Gusts: NA
Location:  45.41°N, 80.09°W
Report Text: CYQA 231000Z AUTO 32004KT 9SM CLR 01/01 A3020 RMK SLP236
Loading
Personal Weather Stations






























Interactive Weather Map
Tropical Storm Tracking
New forecast layout! Learn more

10-Day Weather Forecast

Advertisements
Track Severe Weather on mobile